createdAt,value
2016-09-08T14:15:16.869Z,25.44
2016-09-08T14:16:27.141Z,25.14
2016-09-08T15:21:27.460Z,24.46
2016-09-08T15:22:39.516Z,24.41
2016-09-08T15:52:21.091Z,24.44
2016-09-08T15:53:31.422Z,24.43
2016-09-08T16:27:35.221Z,24.43
2016-09-08T17:27:40.523Z,24.34
2016-09-08T17:28:50.873Z,24.26
2016-09-08T17:30:01.221Z,24.29
2016-09-08T17:31:11.572Z,24.34
2016-09-08T17:32:21.955Z,24.31
2016-09-08T17:33:32.321Z,24.38
2016-09-08T17:34:42.657Z,24.31
2016-09-08T17:35:53.033Z,24.31
2016-09-08T17:37:03.376Z,24.31
2016-09-08T17:38:13.745Z,24.28
2016-09-08T18:28:05.845Z,24.36
2016-09-08T18:29:16.208Z,24.37
2016-09-08T18:30:26.570Z,24.34
2016-09-08T18:31:36.927Z,24.31
2016-09-08T19:28:21.873Z,24.34
2016-09-08T19:29:12.217Z,24.4
2016-09-08T19:30:02.432Z,24.29
2016-09-08T20:28:22.108Z,24.18
2016-09-08T20:29:32.163Z,24.19
2016-09-08T20:30:42.546Z,24.13
2016-09-08T20:31:53.004Z,24.14
2016-09-08T20:32:22.913Z,24.09
2016-09-08T20:33:33.258Z,24.13
2016-09-08T20:34:43.610Z,24.16
2016-09-08T21:28:32.035Z,24.31
2016-09-08T21:29:22.831Z,24.29
2016-09-08T22:28:05.204Z,24.37
2016-09-08T23:28:11.439Z,24.18
2016-09-08T23:29:21.780Z,24.06
2016-09-08T23:30:32.130Z,24.14
2016-09-08T23:31:42.484Z,24.09
2016-09-08T23:32:52.831Z,24.1
2016-09-08T23:34:03.181Z,24.1
2016-09-08T23:35:13.536Z,24.04
2016-09-08T23:36:23.883Z,24.07
2016-09-08T23:37:34.237Z,24.06
2016-09-08T23:38:44.579Z,24.07
2016-09-08T23:39:54.925Z,24.06
2016-09-08T23:41:05.271Z,24.07
2016-09-08T23:42:15.649Z,24.1
2016-09-08T23:43:26.005Z,24.11
2016-09-08T23:44:36.372Z,24.04
2016-09-08T23:45:46.720Z,24.07
2016-09-08T23:46:57.067Z,24.1
